createdAt,value
2019-02-08T00:00:09.878Z,81.05
2019-02-08T00:01:09.897Z,80.54
2019-02-08T00:02:09.863Z,80.64
2019-02-08T00:03:09.850Z,80.02
2019-02-08T00:04:09.834Z,80.50
2019-02-08T00:05:09.825Z,80.60
2019-02-08T00:06:09.834Z,80.19
2019-02-08T00:07:09.802Z,81.02
2019-02-08T00:08:09.798Z,80.12
2019-02-08T00:09:09.789Z,80.50
2019-02-08T00:10:09.767Z,79.16
2019-02-08T00:11:09.785Z,79.67
2019-02-08T00:12:09.746Z,80.19
2019-02-08T00:13:09.737Z,79.67
2019-02-08T00:14:09.727Z,80.60
2019-02-08T00:15:09.730Z,79.36
2019-02-08T00:16:09.735Z,80.81
2019-02-08T00:17:09.699Z,80.19
2019-02-08T00:18:09.684Z,79.33
2019-02-08T00:19:09.683Z,79.74
2019-02-08T00:20:09.668Z,79.84
2019-02-08T00:21:09.678Z,79.22
2019-02-08T00:22:09.649Z,79.43
2019-02-08T00:23:09.631Z,79.33
2019-02-08T00:24:09.620Z,79.74
2019-02-08T00:25:09.610Z,78.29
2019-02-08T00:26:09.633Z,78.50
2019-02-08T00:27:09.597Z,78.81
2019-02-08T00:28:09.579Z,78.50
2019-02-08T00:29:09.567Z,79.43
2019-02-08T00:30:09.578Z,79.02
2019-02-08T00:31:09.592Z,79.36
2019-02-08T00:32:09.548Z,79.53
2019-02-08T00:33:09.523Z,79.16
2019-02-08T00:34:09.514Z,79.26
2019-02-08T00:35:09.502Z,79.47
2019-02-08T00:36:09.498Z,78.60
2019-02-08T00:37:09.506Z,78.33
2019-02-08T00:38:09.471Z,78.60
2019-02-08T00:39:09.468Z,78.85
2019-02-08T00:40:09.475Z,79.57
2019-02-08T00:41:09.497Z,79.47
2019-02-08T00:42:09.615Z,79.57
2019-02-08T00:43:09.497Z,79.60
2019-02-08T00:44:09.445Z,80.22
2019-02-08T00:45:09.467Z,80.29
2019-02-08T00:46:09.387Z,80.91
2019-02-08T00:47:09.497Z,79.71
2019-02-08T00:48:09.389Z,80.19
2019-02-08T00:49:09.407Z,80.22
2019-02-08T00:50:09.416Z,80.12
2019-02-08T00:51:09.499Z,79.19
2019-02-08T00:52:09.509Z,79.71
2019-02-08T00:53:09.313Z,79.36
2019-02-08T00:54:09.304Z,79.30
2019-02-08T00:55:09.294Z,79.30
2019-02-08T00:56:09.295Z,80.43
2019-02-08T00:57:09.300Z,80.88
2019-02-08T00:58:09.259Z,81.40
2019-02-08T00:59:09.255Z,81.20
2019-02-08T01:00:09.248Z,81.09
2019-02-08T01:01:09.231Z,80.16
2019-02-08T01:02:09.244Z,80.16
2019-02-08T01:03:09.221Z,79.81
2019-02-08T01:04:09.203Z,80.22
2019-02-08T01:05:09.223Z,80.88
2019-02-08T01:06:09.213Z,80.74
2019-02-08T01:07:09.192Z,80.16
2019-02-08T01:08:09.157Z,80.47
2019-02-08T01:09:09.142Z,80.68
2019-02-08T01:10:09.136Z,81.20
2019-02-08T01:11:09.124Z,80.36
2019-02-08T01:12:09.132Z,80.26
2019-02-08T01:13:09.106Z,80.54
2019-02-08T01:14:09.094Z,80.36
2019-02-08T01:15:09.079Z,80.54
2019-02-08T01:16:09.070Z,80.43
2019-02-08T01:17:09.088Z,80.64
2019-02-08T01:18:09.053Z,80.26
2019-02-08T01:19:09.044Z,80.26
2019-02-08T01:20:09.039Z,80.16
2019-02-08T01:21:09.021Z,81.20
2019-02-08T01:22:09.037Z,81.23
2019-02-08T01:23:08.998Z,81.65
2019-02-08T01:24:08.990Z,81.13
2019-02-08T01:25:08.975Z,81.13
2019-02-08T01:26:08.971Z,81.02
2019-02-08T01:27:08.988Z,81.44
2019-02-08T01:28:08.943Z,81.30
2019-02-08T01:29:08.940Z,81.23
2019-02-08T01:30:08.924Z,81.34
2019-02-08T01:31:08.911Z,81.20
2019-02-08T01:32:08.921Z,81.65
2019-02-08T01:33:08.891Z,81.44
2019-02-08T01:34:08.880Z,81.54
2019-02-08T01:35:08.873Z,81.75
2019-02-08T01:36:08.861Z,82.10
2019-02-08T01:37:08.870Z,83.03
2019-02-08T01:38:08.843Z,82.20
2019-02-08T01:39:08.827Z,81.89
2019-02-08T01:40:08.815Z,81.96
2019-02-08T01:41:08.812Z,82.10
2019-02-08T01:42:08.824Z,82.20
2019-02-08T01:43:08.786Z,81.75
2019-02-08T01:44:08.781Z,81.54
2019-02-08T01:45:08.766Z,81.34
2019-02-08T01:46:08.753Z,81.34
2019-02-08T01:47:08.770Z,81.75
2019-02-08T01:48:08.739Z,82.06
2019-02-08T01:49:08.721Z,81.99
2019-02-08T01:50:08.711Z,81.89
2019-02-08T01:51:08.698Z,81.65
2019-02-08T01:52:08.714Z,81.23
2019-02-08T01:53:08.679Z,81.40
2019-02-08T01:54:08.675Z,80.57
2019-02-08T01:55:08.660Z,80.47
2019-02-08T01:56:08.649Z,80.22
2019-02-08T01:57:08.663Z,81.40
2019-02-08T01:58:08.626Z,81.40
2019-02-08T01:59:08.617Z,80.68
2019-02-08T02:00:10.045Z,80.95
2019-02-08T02:01:08.603Z,80.54
2019-02-08T02:02:08.611Z,81.05
2019-02-08T02:03:08.582Z,80.85
2019-02-08T02:04:08.565Z,81.26
2019-02-08T02:05:08.557Z,80.12
2019-02-08T02:06:08.544Z,79.50
2019-02-08T02:07:08.561Z,79.81
2019-02-08T02:08:08.523Z,79.91
2019-02-08T02:09:08.511Z,80.74
2019-02-08T02:10:08.506Z,80.57
2019-02-08T02:11:08.492Z,81.16
2019-02-08T02:12:08.503Z,80.33
2019-02-08T02:13:08.467Z,81.30
2019-02-08T02:14:08.459Z,81.30
2019-02-08T02:15:08.450Z,80.99
2019-02-08T02:16:08.446Z,81.40
2019-02-08T02:17:08.433Z,81.30
2019-02-08T02:18:08.451Z,81.40
2019-02-08T02:19:08.405Z,80.12
2019-02-08T02:20:08.395Z,80.43
2019-02-08T02:21:08.393Z,80.85
2019-02-08T02:22:08.375Z,79.50
2019-02-08T02:23:08.395Z,80.12
2019-02-08T02:24:08.365Z,80.33
2019-02-08T02:25:08.346Z,80.54
2019-02-08T02:26:08.335Z,80.64
2019-02-08T02:27:08.323Z,80.02
2019-02-08T02:28:08.336Z,80.33
2019-02-08T02:29:08.304Z,80.50
2019-02-08T02:30:08.292Z,80.95
2019-02-08T02:31:08.282Z,81.05
2019-02-08T02:32:08.270Z,79.98
2019-02-08T02:33:08.292Z,81.02
2019-02-08T02:34:08.254Z,80.71
2019-02-08T02:35:08.236Z,80.71
2019-02-08T02:36:08.257Z,80.67
2019-02-08T02:37:08.219Z,79.84
2019-02-08T02:38:08.234Z,80.50
2019-02-08T02:39:08.201Z,80.81
2019-02-08T02:40:08.186Z,80.50
2019-02-08T02:41:08.182Z,80.50
2019-02-08T02:42:08.169Z,80.60
2019-02-08T02:43:08.176Z,80.60
2019-02-08T02:44:08.144Z,81.23
2019-02-08T02:45:08.135Z,80.81
2019-02-08T02:46:08.163Z,81.16
2019-02-08T02:47:08.114Z,80.08
2019-02-08T02:48:08.129Z,81.33
2019-02-08T02:49:08.098Z,81.26
2019-02-08T02:50:08.081Z,81.37
2019-02-08T02:51:08.073Z,81.88
2019-02-08T02:52:08.055Z,81.05
2019-02-08T02:53:08.096Z,81.23
2019-02-08T02:54:08.040Z,81.33
2019-02-08T02:55:08.027Z,81.23
2019-02-08T02:56:08.016Z,80.91
2019-02-08T02:57:08.013Z,80.95
2019-02-08T02:58:08.059Z,81.99
2019-02-08T02:59:07.983Z,81.68
2019-02-08T03:00:07.975Z,82.09
2019-02-08T03:01:07.963Z,81.37
2019-02-08T03:02:07.954Z,81.78
2019-02-08T03:03:07.977Z,81.02
2019-02-08T03:04:07.931Z,81.23
2019-02-08T03:05:07.920Z,81.02
2019-02-08T03:06:07.912Z,81.64
2019-02-08T03:07:07.900Z,82.05
2019-02-08T03:08:07.920Z,81.68
2019-02-08T03:09:07.880Z,82.92
2019-02-08T03:10:07.866Z,81.64
2019-02-08T03:11:07.863Z,81.57
2019-02-08T03:12:07.851Z,81.74
2019-02-08T03:13:07.862Z,81.88
2019-02-08T03:14:07.830Z,82.09
2019-02-08T03:15:07.817Z,82.09
2019-02-08T03:16:07.804Z,82.71
2019-02-08T03:17:07.799Z,82.88
2019-02-08T03:18:07.806Z,83.23
2019-02-08T03:19:07.775Z,82.71
2019-02-08T03:20:07.774Z,83.02
2019-02-08T03:21:07.758Z,83.23
2019-02-08T03:22:07.739Z,83.33
2019-02-08T03:23:07.760Z,83.02
2019-02-08T03:24:12.949Z,83.75
2019-02-08T03:25:08.708Z,83.23
2019-02-08T03:26:07.700Z,83.12
2019-02-08T03:27:07.703Z,83.02
2019-02-08T03:28:07.707Z,83.54
2019-02-08T03:29:07.668Z,83.64
2019-02-08T03:30:07.664Z,83.64
2019-02-08T03:31:07.648Z,83.02
2019-02-08T03:32:07.638Z,83.44
2019-02-08T03:33:07.654Z,83.23
2019-02-08T03:34:07.616Z,83.95
2019-02-08T03:35:07.607Z,83.54
2019-02-08T03:36:07.591Z,83.85
2019-02-08T03:37:07.582Z,83.54
2019-02-08T03:38:07.602Z,83.23
2019-02-08T03:39:07.561Z,83.75
2019-02-08T03:40:07.552Z,83.85
2019-02-08T03:41:07.540Z,83.54
2019-02-08T03:42:07.531Z,83.68
2019-02-08T03:43:08.233Z,83.95
2019-02-08T03:44:07.516Z,83.64
2019-02-08T03:45:07.509Z,84.47
2019-02-08T03:46:07.499Z,83.95
2019-02-08T03:47:07.480Z,83.95
2019-02-08T03:48:07.492Z,83.95
2019-02-08T03:49:07.459Z,84.47
2019-02-08T03:50:09.166Z,83.95
2019-02-08T03:51:07.434Z,83.85
2019-02-08T03:52:07.424Z,84.37
2019-02-08T03:53:07.439Z,84.99
2019-02-08T03:54:07.404Z,84.16
2019-02-08T03:55:07.405Z,84.88
2019-02-08T03:56:07.382Z,84.61
2019-02-08T03:57:07.379Z,84.78
2019-02-08T03:58:07.398Z,86.23
2019-02-08T03:59:07.349Z,86.99
2019-02-08T04:00:07.346Z,86.79
2019-02-08T04:01:07.329Z,87.62
2019-02-08T04:02:07.319Z,89.11
2019-02-08T04:03:07.315Z,88.90
2019-02-08T04:04:07.318Z,89.11
2019-02-08T04:05:07.288Z,88.90
2019-02-08T04:06:07.274Z,89.52
2019-02-08T04:07:07.265Z,89.83
2019-02-08T04:08:07.272Z,89.52
2019-02-08T04:09:07.274Z,88.59
2019-02-08T04:10:07.237Z,89.11
2019-02-08T04:11:07.223Z,88.59
2019-02-08T04:12:07.231Z,89.52
2019-02-08T04:13:07.199Z,90.25
2019-02-08T04:14:07.217Z,90.04
2019-02-08T04:15:07.186Z,90.56
2019-02-08T04:16:07.171Z,90.87
2019-02-08T04:17:07.161Z,89.73
2019-02-08T04:18:07.150Z,89.52
2019-02-08T04:19:07.165Z,89.62
2019-02-08T04:20:07.126Z,89.00
2019-02-08T04:21:07.118Z,89.42
2019-02-08T04:22:07.114Z,89.31
2019-02-08T04:23:07.098Z,89.52
2019-02-08T04:24:07.117Z,89.87
2019-02-08T04:25:07.078Z,90.81
2019-02-08T04:26:07.070Z,90.91
2019-02-08T04:27:07.055Z,90.70
2019-02-08T04:28:07.042Z,90.77
2019-02-08T04:29:07.059Z,90.87
2019-02-08T04:30:07.030Z,90.91
2019-02-08T04:31:07.011Z,90.70
2019-02-08T04:32:07.003Z,90.91
2019-02-08T04:33:06.990Z,90.70
2019-02-08T04:34:07.006Z,90.60
2019-02-08T04:35:06.974Z,89.87
2019-02-08T04:36:06.963Z,89.98
2019-02-08T04:37:06.951Z,89.67
2019-02-08T04:38:06.955Z,89.56
2019-02-08T04:39:06.950Z,89.15
2019-02-08T04:40:06.917Z,88.69
2019-02-08T04:41:06.921Z,87.97
2019-02-08T04:42:06.895Z,88.59
2019-02-08T04:43:06.889Z,89.31
2019-02-08T04:44:06.907Z,88.59
2019-02-08T04:45:06.865Z,88.63
2019-02-08T04:46:06.853Z,89.00
2019-02-08T04:47:06.844Z,89.36
2019-02-08T04:48:06.832Z,89.21
2019-02-08T04:49:06.860Z,88.90
2019-02-08T04:50:06.816Z,89.00
2019-02-08T04:51:06.799Z,89.11
2019-02-08T04:52:06.793Z,88.90
2019-02-08T04:53:06.781Z,88.90
2019-02-08T04:54:06.801Z,88.18
2019-02-08T04:55:06.754Z,87.62
2019-02-08T04:56:06.752Z,87.45
2019-02-08T04:57:06.736Z,87.76
2019-02-08T04:58:06.727Z,87.97
2019-02-08T04:59:06.739Z,88.28
2019-02-08T05:00:06.706Z,87.76
2019-02-08T05:01:06.699Z,87.66
2019-02-08T05:02:06.683Z,86.89
2019-02-08T05:03:06.677Z,87.35
2019-02-08T05:04:06.686Z,87.62
2019-02-08T05:05:06.661Z,86.99
2019-02-08T05:06:06.645Z,86.89
2019-02-08T05:07:06.632Z,86.79
2019-02-08T05:08:06.618Z,86.68
2019-02-08T05:09:06.642Z,86.47
2019-02-08T05:10:06.623Z,86.47
2019-02-08T05:11:06.599Z,86.47
2019-02-08T05:12:06.645Z,86.37
2019-02-08T05:13:06.733Z,86.99
2019-02-08T05:14:06.621Z,86.72
2019-02-08T05:15:06.550Z,87.24
2019-02-08T05:16:06.705Z,87.14
2019-02-08T05:17:06.528Z,86.83
2019-02-08T05:18:06.520Z,86.99
2019-02-08T05:19:06.532Z,88.39
2019-02-08T05:20:06.498Z,88.07
2019-02-08T05:21:06.483Z,87.55
2019-02-08T05:22:06.480Z,88.18
2019-02-08T05:23:06.467Z,87.04
2019-02-08T05:24:06.477Z,87.04
2019-02-08T05:25:06.444Z,87.20
2019-02-08T05:26:06.435Z,87.14
2019-02-08T05:27:06.443Z,88.18
2019-02-08T05:28:06.416Z,87.66
2019-02-08T05:29:06.434Z,87.76
2019-02-08T05:30:06.396Z,87.87
2019-02-08T05:31:06.383Z,88.39
2019-02-08T05:32:06.378Z,87.45
2019-02-08T05:33:06.362Z,87.04
2019-02-08T05:34:06.380Z,88.28
2019-02-08T05:35:06.344Z,87.04
2019-02-08T05:36:06.330Z,87.87
2019-02-08T05:37:06.320Z,88.28
2019-02-08T05:38:06.304Z,86.93
2019-02-08T05:39:06.319Z,86.93
2019-02-08T05:40:06.298Z,86.83
2019-02-08T05:41:06.274Z,87.14
2019-02-08T05:42:06.264Z,87.14
2019-02-08T05:43:06.250Z,86.83
2019-02-08T05:44:06.242Z,86.83
2019-02-08T05:45:06.259Z,86.62
2019-02-08T05:46:06.219Z,87.04
2019-02-08T05:47:06.211Z,87.14
2019-02-08T05:48:06.201Z,86.83
2019-02-08T05:49:06.187Z,86.83
2019-02-08T05:50:06.198Z,86.93
2019-02-08T05:51:06.168Z,86.83
2019-02-08T05:52:06.154Z,86.93
2019-02-08T05:53:06.146Z,87.38
2019-02-08T05:54:06.144Z,86.72
2019-02-08T05:55:06.160Z,87.04
2019-02-08T05:56:06.121Z,86.72
2019-02-08T05:57:06.109Z,86.93
2019-02-08T05:58:06.091Z,86.72
2019-02-08T05:59:06.083Z,87.07
2019-02-08T06:00:06.101Z,86.72
2019-02-08T06:01:06.060Z,86.97
2019-02-08T06:02:06.052Z,86.72
2019-02-08T06:03:06.044Z,86.72
2019-02-08T06:04:06.026Z,87.04
2019-02-08T06:05:06.042Z,87.87
2019-02-08T06:06:06.010Z,87.80
2019-02-08T06:07:05.998Z,87.90
2019-02-08T06:08:05.997Z,88.01
2019-02-08T06:09:05.978Z,88.48
2019-02-08T06:10:05.999Z,89.25
2019-02-08T06:11:05.957Z,89.04
2019-02-08T06:12:05.948Z,89.15
2019-02-08T06:13:05.940Z,89.98
2019-02-08T06:14:05.934Z,90.39
2019-02-08T06:15:05.940Z,91.02
2019-02-08T06:16:05.900Z,90.60
2019-02-08T06:17:05.901Z,90.91
2019-02-08T06:18:05.888Z,91.33
2019-02-08T06:19:05.868Z,91.12
2019-02-08T06:20:05.888Z,91.12
2019-02-08T06:21:05.846Z,91.33
2019-02-08T06:22:05.841Z,91.02
2019-02-08T06:23:05.833Z,90.91
2019-02-08T06:24:05.816Z,90.81
2019-02-08T06:25:05.827Z,91.02
2019-02-08T06:26:05.803Z,90.39
2019-02-08T06:27:05.783Z,90.81
2019-02-08T06:28:05.773Z,89.83
2019-02-08T06:29:05.771Z,91.02
2019-02-08T06:30:05.786Z,90.91
2019-02-08T06:31:05.747Z,90.50
2019-02-08T06:32:05.739Z,90.81
2019-02-08T06:33:05.725Z,90.91
2019-02-08T06:34:05.712Z,90.70
2019-02-08T06:35:05.739Z,90.77
2019-02-08T06:36:05.688Z,91.02
2019-02-08T06:37:05.702Z,91.02
2019-02-08T06:38:05.675Z,90.19
2019-02-08T06:39:05.655Z,90.19
2019-02-08T06:40:05.671Z,90.91
2019-02-08T06:41:05.636Z,90.91
2019-02-08T06:42:05.623Z,90.25
2019-02-08T06:43:05.624Z,89.83
2019-02-08T06:44:05.603Z,90.25
2019-02-08T06:45:05.855Z,89.73
2019-02-08T06:46:05.588Z,89.52
2019-02-08T06:47:05.572Z,89.77
2019-02-08T06:48:05.559Z,89.00
2019-02-08T06:49:05.553Z,88.90
2019-02-08T06:50:05.565Z,89.00
2019-02-08T06:51:05.529Z,89.00
2019-02-08T06:52:05.531Z,89.11
2019-02-08T06:53:05.507Z,89.11
2019-02-08T06:54:05.494Z,88.90
2019-02-08T06:55:10.662Z,89.00
2019-02-08T06:56:06.475Z,89.00
2019-02-08T06:57:05.467Z,89.52
2019-02-08T06:58:05.460Z,89.31
2019-02-08T06:59:05.443Z,89.52
2019-02-08T07:00:05.464Z,89.21
2019-02-08T07:01:05.427Z,88.39
2019-02-08T07:02:05.414Z,88.39
2019-02-08T07:03:05.404Z,89.48
2019-02-08T07:04:05.394Z,89.62
2019-02-08T07:05:05.409Z,88.69
2019-02-08T07:06:05.380Z,88.45
2019-02-08T07:07:05.372Z,88.34
2019-02-08T07:08:05.357Z,87.93
2019-02-08T07:09:05.346Z,88.03
2019-02-08T07:10:05.352Z,87.41
2019-02-08T07:11:05.315Z,87.82
2019-02-08T07:12:05.310Z,88.13
2019-02-08T07:13:05.298Z,88.13
2019-02-08T07:14:05.293Z,86.99
2019-02-08T07:15:05.302Z,86.99
2019-02-08T07:16:05.265Z,87.10
2019-02-08T07:17:05.256Z,86.96
2019-02-08T07:18:05.253Z,86.79
2019-02-08T07:19:05.231Z,86.33
2019-02-08T07:20:05.368Z,86.68
2019-02-08T07:21:05.214Z,86.85
2019-02-08T07:22:05.198Z,86.54
2019-02-08T07:23:05.206Z,86.89
2019-02-08T07:24:05.183Z,87.16
2019-02-08T07:25:05.167Z,86.65
2019-02-08T07:26:05.198Z,86.44
2019-02-08T07:27:05.149Z,86.54
2019-02-08T07:28:05.134Z,86.33
2019-02-08T07:29:05.130Z,86.50
2019-02-08T07:30:05.128Z,86.44
2019-02-08T07:31:05.363Z,85.88
2019-02-08T07:32:05.095Z,86.02
2019-02-08T07:33:05.084Z,85.92
2019-02-08T07:34:05.076Z,85.61
2019-02-08T07:35:05.064Z,86.09
2019-02-08T07:36:05.078Z,85.68
2019-02-08T07:37:05.046Z,85.05
2019-02-08T07:38:05.036Z,85.88
2019-02-08T07:39:05.025Z,85.78
2019-02-08T07:40:05.015Z,85.36
2019-02-08T07:41:05.023Z,86.29
2019-02-08T07:42:04.998Z,85.78
2019-02-08T07:43:04.974Z,85.47
2019-02-08T07:44:04.968Z,85.78
2019-02-08T07:45:04.954Z,85.88
2019-02-08T07:46:04.972Z,85.68
2019-02-08T07:47:04.941Z,86.19
2019-02-08T07:48:04.932Z,85.68
2019-02-08T07:49:04.916Z,85.36
2019-02-08T07:50:04.907Z,85.68
2019-02-08T07:51:04.920Z,85.36
2019-02-08T07:52:04.891Z,85.36
2019-02-08T07:53:04.880Z,85.47
2019-02-08T07:54:04.861Z,85.11
2019-02-08T07:55:04.851Z,85.22
2019-02-08T07:56:04.864Z,84.50
2019-02-08T07:57:04.836Z,85.02
2019-02-08T07:58:04.828Z,85.22
2019-02-08T07:59:04.816Z,84.36
2019-02-08T08:00:04.809Z,85.49
2019-02-08T08:01:04.812Z,86.11
2019-02-08T08:02:04.781Z,85.91
2019-02-08T08:03:04.779Z,86.01
2019-02-08T08:04:04.760Z,85.14
2019-02-08T08:05:04.753Z,84.73
2019-02-08T08:06:04.768Z,83.80
2019-02-08T08:07:04.727Z,84.42
2019-02-08T08:08:04.720Z,84.31
2019-02-08T08:09:04.705Z,84.73
2019-02-08T08:10:04.695Z,83.80
2019-02-08T08:11:04.712Z,84.21
2019-02-08T08:12:04.676Z,83.70
2019-02-08T08:13:04.675Z,84.00
2019-02-08T08:14:04.651Z,84.31
2019-02-08T08:15:04.648Z,83.18
2019-02-08T08:16:04.657Z,83.90
2019-02-08T08:17:04.616Z,82.87
2019-02-08T08:18:04.612Z,83.70
2019-02-08T08:19:04.602Z,82.83
2019-02-08T08:20:04.629Z,83.34
2019-02-08T08:21:04.633Z,82.76
2019-02-08T08:22:04.620Z,83.04
2019-02-08T08:23:04.556Z,82.83
2019-02-08T08:24:04.539Z,83.18
2019-02-08T08:25:04.535Z,82.83
2019-02-08T08:26:04.555Z,82.83
2019-02-08T08:27:04.513Z,82.93
2019-02-08T08:28:04.501Z,82.83
2019-02-08T08:29:04.492Z,83.04
2019-02-08T08:30:04.481Z,81.49
2019-02-08T08:31:04.498Z,81.66
2019-02-08T08:32:04.464Z,80.73
2019-02-08T08:33:04.473Z,81.56
2019-02-08T08:34:04.441Z,81.04
2019-02-08T08:35:04.429Z,79.86
2019-02-08T08:36:04.446Z,81.10
2019-02-08T08:37:04.409Z,81.14
2019-02-08T08:38:04.399Z,79.90
2019-02-08T08:39:04.385Z,80.42
2019-02-08T08:40:04.378Z,79.86
2019-02-08T08:41:04.395Z,80.07
2019-02-08T08:42:04.353Z,79.66
2019-02-08T08:43:04.341Z,78.83
2019-02-08T08:44:04.332Z,79.45
2019-02-08T08:45:04.322Z,79.52
2019-02-08T08:46:04.334Z,79.00
2019-02-08T08:47:04.296Z,78.24
2019-02-08T08:48:04.303Z,77.35
2019-02-08T08:49:04.294Z,77.83
2019-02-08T08:50:54.139Z,78.41
2019-02-08T08:51:54.143Z,76.53
2019-02-08T08:52:54.103Z,76.76
2019-02-08T08:53:54.088Z,76.76
2019-02-08T08:54:54.074Z,77.69
2019-02-08T08:55:54.081Z,76.76
2019-02-08T08:56:54.075Z,77.18
2019-02-08T08:57:54.044Z,78.11
2019-02-08T08:58:54.037Z,76.76
2019-02-08T08:59:54.020Z,76.87
2019-02-08T09:00:54.011Z,76.76
2019-02-08T09:01:54.032Z,76.87
2019-02-08T09:02:53.992Z,77.90
2019-02-08T09:03:53.982Z,76.97
2019-02-08T09:04:53.974Z,77.18
2019-02-08T09:05:53.969Z,77.42
2019-02-08T09:06:53.978Z,77.83
2019-02-08T09:07:53.946Z,77.01
2019-02-08T09:08:53.928Z,79.17
2019-02-08T09:09:53.925Z,78.80
2019-02-08T09:10:53.908Z,79.31
2019-02-08T09:11:53.928Z,78.80
2019-02-08T09:12:53.887Z,79.52
2019-02-08T09:13:53.909Z,79.21
2019-02-08T09:14:53.867Z,79.72
2019-02-08T09:15:53.860Z,79.66
2019-02-08T09:16:53.874Z,79.00
2019-02-08T09:17:53.836Z,79.62
2019-02-08T09:18:53.831Z,79.11
2019-02-08T09:19:53.816Z,79.17
2019-02-08T09:20:53.805Z,76.80
2019-02-08T09:21:53.819Z,77.80
2019-02-08T09:22:53.788Z,77.45
2019-02-08T09:23:53.778Z,76.25
2019-02-08T09:24:53.823Z,77.28
2019-02-08T09:25:53.755Z,76.97
2019-02-08T09:26:53.768Z,77.52
2019-02-08T09:27:53.730Z,76.70
2019-02-08T09:28:53.724Z,77.22
2019-02-08T09:29:53.710Z,78.14
2019-02-08T09:30:53.703Z,77.62
2019-02-08T09:31:53.725Z,77.62
2019-02-08T09:32:53.680Z,77.15
2019-02-08T09:33:53.667Z,78.38
2019-02-08T09:34:55.164Z,78.80
2019-02-08T09:35:53.647Z,78.90
2019-02-08T09:36:53.674Z,78.18
2019-02-08T09:37:53.628Z,79.00
2019-02-08T09:38:53.618Z,79.58
2019-02-08T09:39:53.618Z,78.34
2019-02-08T09:40:53.597Z,77.73
2019-02-08T09:41:53.611Z,77.94
2019-02-08T09:42:53.581Z,76.90
2019-02-08T09:43:53.563Z,77.42
2019-02-08T09:44:53.552Z,78.14
2019-02-08T09:45:53.550Z,77.73
2019-02-08T09:46:53.572Z,78.04
2019-02-08T09:47:53.524Z,78.24
2019-02-08T09:48:53.511Z,78.04
2019-02-08T09:49:53.531Z,77.83
2019-02-08T09:50:53.491Z,77.52
2019-02-08T09:51:53.510Z,77.22
2019-02-08T09:52:53.474Z,77.31
2019-02-08T09:53:53.464Z,77.01
2019-02-08T09:54:53.452Z,77.31
2019-02-08T09:55:57.891Z,77.94
2019-02-08T09:56:53.455Z,77.31
2019-02-08T09:57:53.416Z,76.80
2019-02-08T09:58:53.406Z,77.42
2019-02-08T09:59:53.405Z,77.83
2019-02-08T10:00:53.390Z,77.31
2019-02-08T10:01:53.437Z,76.59
2019-02-08T10:02:53.394Z,77.01
2019-02-08T10:03:53.354Z,77.31
2019-02-08T10:04:53.383Z,77.59
2019-02-08T10:05:53.337Z,77.28
2019-02-08T10:06:53.347Z,76.35
2019-02-08T10:07:53.320Z,76.32
2019-02-08T10:08:53.296Z,76.63
2019-02-08T10:09:53.284Z,76.11
2019-02-08T10:10:53.277Z,76.83
2019-02-08T10:11:53.335Z,77.04
2019-02-08T10:12:53.254Z,76.21
2019-02-08T10:13:53.240Z,75.81
2019-02-08T10:14:54.892Z,75.56
2019-02-08T10:15:53.227Z,76.18
2019-02-08T10:16:53.291Z,76.07
2019-02-08T10:17:53.206Z,75.81
2019-02-08T10:18:53.189Z,75.77
2019-02-08T10:19:53.182Z,74.95
2019-02-08T10:20:54.165Z,74.53
2019-02-08T10:21:53.194Z,75.46
2019-02-08T10:22:53.146Z,75.73
2019-02-08T10:23:53.132Z,75.77
2019-02-08T10:24:53.121Z,75.77
2019-02-08T10:25:53.111Z,75.77
2019-02-08T10:26:53.097Z,75.67
2019-02-08T10:27:53.120Z,75.35
2019-02-08T10:28:53.083Z,75.25
2019-02-08T10:29:53.065Z,74.63
2019-02-08T10:30:53.060Z,75.56
2019-02-08T10:31:53.045Z,75.84
2019-02-08T10:32:53.072Z,75.22
2019-02-08T10:33:53.023Z,74.60
2019-02-08T10:34:53.013Z,75.01
2019-02-08T10:35:52.998Z,74.80
2019-02-08T10:36:52.996Z,74.70
2019-02-08T10:37:53.006Z,74.70
2019-02-08T10:38:52.968Z,74.80
2019-02-08T10:39:52.958Z,73.68
2019-02-08T10:40:52.946Z,75.12
2019-02-08T10:41:52.938Z,75.39
2019-02-08T10:42:52.952Z,73.36
2019-02-08T10:43:52.916Z,75.42
2019-02-08T10:44:52.907Z,73.88
2019-02-08T10:45:52.895Z,75.63
2019-02-08T10:46:52.884Z,75.01
2019-02-08T10:47:52.898Z,75.32
2019-02-08T10:48:52.881Z,75.52
2019-02-08T10:49:52.851Z,75.35
2019-02-08T10:50:52.843Z,75.22
2019-02-08T10:51:52.836Z,75.22
2019-02-08T10:52:52.846Z,75.67
2019-02-08T10:53:53.344Z,75.46
2019-02-08T10:54:52.801Z,75.25
2019-02-08T10:55:52.790Z,75.25
2019-02-08T10:56:52.780Z,75.56
2019-02-08T10:57:52.790Z,75.87
2019-02-08T10:58:52.760Z,75.60
2019-02-08T10:59:52.755Z,75.90
2019-02-08T11:00:52.750Z,76.07
2019-02-08T11:01:52.727Z,76.18
2019-02-08T11:02:52.739Z,76.01
2019-02-08T11:03:52.710Z,75.35
2019-02-08T11:04:52.693Z,76.07
2019-02-08T11:05:52.683Z,75.67
2019-02-08T11:06:52.681Z,76.49
2019-02-08T11:07:52.685Z,76.59
2019-02-08T11:08:52.661Z,76.79
2019-02-08T11:09:52.640Z,76.63
2019-02-08T11:10:52.629Z,76.63
2019-02-08T11:11:52.617Z,76.63
2019-02-08T11:12:52.637Z,75.90
2019-02-08T11:13:52.597Z,75.81
2019-02-08T11:14:52.583Z,76.28
2019-02-08T11:15:52.576Z,75.49
2019-02-08T11:16:52.569Z,75.39
2019-02-08T11:17:52.583Z,75.56
2019-02-08T11:18:52.544Z,76.18
2019-02-08T11:19:52.527Z,76.07
2019-02-08T11:20:52.523Z,76.90
2019-02-08T11:21:52.513Z,76.14
2019-02-08T11:22:52.523Z,75.87
2019-02-08T11:23:52.489Z,76.25
2019-02-08T11:24:52.479Z,75.94
2019-02-08T11:25:52.473Z,75.42
2019-02-08T11:26:52.458Z,76.11
2019-02-08T11:27:52.471Z,74.80
2019-02-08T11:28:52.436Z,74.60
2019-02-08T11:29:52.423Z,75.22
2019-02-08T11:30:52.414Z,75.22
2019-02-08T11:31:52.402Z,75.12
2019-02-08T11:32:52.416Z,75.73
2019-02-08T11:33:52.381Z,76.04
2019-02-08T11:34:52.371Z,75.63
2019-02-08T11:35:52.367Z,75.73
2019-02-08T11:36:52.347Z,75.59
2019-02-08T11:37:52.370Z,75.70
2019-02-08T11:38:52.333Z,75.35
2019-02-08T11:39:52.322Z,73.98
2019-02-08T11:40:52.306Z,73.57
2019-02-08T11:41:52.297Z,73.88
2019-02-08T11:42:52.312Z,73.06
2019-02-08T11:43:52.284Z,74.19
2019-02-08T11:44:52.259Z,72.89
2019-02-08T11:45:52.421Z,71.75
2019-02-08T11:46:52.246Z,73.47
2019-02-08T11:47:52.260Z,72.27
2019-02-08T11:48:52.223Z,73.61
2019-02-08T11:49:52.217Z,73.81
2019-02-08T11:50:52.206Z,73.91
2019-02-08T11:51:52.187Z,73.91
2019-02-08T11:52:52.205Z,74.50
2019-02-08T11:53:52.173Z,73.98
2019-02-08T11:54:52.155Z,73.64
2019-02-08T11:55:52.149Z,74.15
2019-02-08T11:56:52.135Z,73.13
2019-02-08T11:57:52.150Z,72.82
2019-02-08T11:58:52.115Z,72.92
2019-02-08T11:59:52.149Z,73.64
2019-02-08T12:00:52.092Z,73.13
2019-02-08T12:01:52.079Z,73.85
2019-02-08T12:02:52.114Z,72.31
2019-02-08T12:03:52.060Z,73.47
2019-02-08T12:04:52.054Z,72.82
2019-02-08T12:05:52.044Z,72.92
2019-02-08T12:06:52.029Z,73.33
2019-02-08T12:07:52.025Z,73.95
2019-02-08T12:08:52.032Z,73.02
2019-02-08T12:09:51.997Z,72.10
2019-02-08T12:10:51.988Z,71.69
2019-02-08T12:11:51.980Z,72.20
2019-02-08T12:12:51.963Z,72.75
2019-02-08T12:13:51.984Z,73.27
2019-02-08T12:14:51.948Z,73.27
2019-02-08T12:15:51.934Z,74.05
2019-02-08T12:16:51.927Z,73.85
2019-02-08T12:17:51.917Z,72.61
2019-02-08T12:18:51.929Z,73.85
2019-02-08T12:19:51.891Z,72.72
2019-02-08T12:20:51.882Z,73.74
2019-02-08T12:21:51.884Z,72.85
2019-02-08T12:22:51.848Z,72.75
2019-02-08T12:23:51.872Z,73.27
2019-02-08T12:24:52.573Z,72.85
2019-02-08T12:25:51.823Z,73.57
2019-02-08T12:26:51.815Z,74.40
2019-02-08T12:27:51.805Z,73.98
2019-02-08T12:28:51.813Z,73.98
2019-02-08T12:29:51.783Z,73.36
2019-02-08T12:30:51.774Z,73.81
2019-02-08T12:31:51.768Z,73.88
2019-02-08T12:32:51.752Z,73.78
2019-02-08T12:33:51.780Z,74.22
2019-02-08T12:34:51.739Z,74.12
2019-02-08T12:35:51.725Z,74.74
2019-02-08T12:36:51.708Z,73.91
2019-02-08T12:37:51.700Z,74.74
2019-02-08T12:38:51.716Z,74.22
2019-02-08T12:39:51.670Z,75.35
2019-02-08T12:40:51.671Z,74.63
2019-02-08T12:41:51.663Z,73.95
2019-02-08T12:42:51.647Z,74.98
2019-02-08T12:43:51.660Z,75.39
2019-02-08T12:44:51.632Z,74.67
2019-02-08T12:45:51.654Z,75.67
2019-02-08T12:46:51.604Z,75.15
2019-02-08T12:47:51.595Z,74.74
2019-02-08T12:48:51.608Z,75.56
2019-02-08T12:49:51.578Z,75.63
2019-02-08T12:50:51.568Z,75.01
2019-02-08T12:51:51.555Z,74.43
2019-02-08T12:52:51.529Z,74.33